createdAt,value
2023-01-13T07:23:17.473Z,12.40
2023-01-13T07:25:44.317Z,12.13
2023-01-13T07:28:11.170Z,12.80
2023-01-13T07:30:38.640Z,11.63
2023-01-13T07:33:05.516Z,12.17
2023-01-13T07:35:32.397Z,12.30
2023-01-13T07:37:59.272Z,11.67
2023-01-13T07:40:26.134Z,11.27
2023-01-13T07:43:11.594Z,12.67
2023-01-13T07:45:38.483Z,12.33
2023-01-13T07:48:05.608Z,15.20
2023-01-13T07:50:32.570Z,13.17
2023-01-13T07:53:00.124Z,16.97
2023-01-13T07:55:27.021Z,14.57
2023-01-13T07:57:53.949Z,15.20
2023-01-13T08:00:21.425Z,16.07
2023-01-13T08:02:48.372Z,13.37
2023-01-13T08:05:18.590Z,11.07
2023-01-13T08:07:45.708Z,8.83
2023-01-13T08:10:12.602Z,10.30
2023-01-13T08:12:57.997Z,10.77
2023-01-13T08:15:24.908Z,9.07
2023-01-13T08:17:54.691Z,10.67
2023-01-13T08:20:21.772Z,9.57
2023-01-13T08:22:48.646Z,8.40
2023-01-13T08:25:15.517Z,8.00
2023-01-13T08:27:42.552Z,8.47
2023-01-13T08:30:11.604Z,9.63
2023-01-13T08:32:38.469Z,9.93
2023-01-13T08:35:05.677Z,7.43
2023-01-13T08:37:32.663Z,6.73
2023-01-13T08:39:59.698Z,10.20
2023-01-13T08:42:33.081Z,9.97
2023-01-13T08:44:59.956Z,11.07
2023-01-13T08:47:29.926Z,10.07
2023-01-13T08:49:56.736Z,10.03
2023-01-13T08:52:24.271Z,6.97
2023-01-13T08:54:51.223Z,7.50
2023-01-13T08:57:21.474Z,7.30
2023-01-13T08:59:48.721Z,6.87
2023-01-13T09:02:21.702Z,5.47
2023-01-13T09:04:49.234Z,4.47
2023-01-13T09:07:16.880Z,4.43
2023-01-13T09:09:43.865Z,5.20
2023-01-13T09:12:34.084Z,5.20
2023-01-13T09:15:02.145Z,4.87
2023-01-13T09:17:29.068Z,4.43
2023-01-13T09:19:55.934Z,4.20
2023-01-13T09:22:27.068Z,3.97
2023-01-13T09:24:55.341Z,4.30
2023-01-13T09:27:23.158Z,4.83
2023-01-13T09:29:50.442Z,5.13
2023-01-13T09:32:17.411Z,4.50
2023-01-13T09:35:02.620Z,3.80
2023-01-13T09:37:32.642Z,3.60
2023-01-13T09:39:59.631Z,3.60
2023-01-13T09:43:07.915Z,3.60
2023-01-13T09:45:44.055Z,3.93
2023-01-13T09:48:21.123Z,2.90
2023-01-13T09:51:03.001Z,3.10
2023-01-13T09:53:37.167Z,2.63
2023-01-13T09:56:04.447Z,3.23
2023-01-13T09:58:35.419Z,3.80
2023-01-13T10:01:52.827Z,3.00
2023-01-13T10:04:20.159Z,3.77
2023-01-13T10:07:00.727Z,2.93
2023-01-13T10:09:49.935Z,2.87
2023-01-13T10:12:45.058Z,3.15
2023-01-13T10:15:23.475Z,3.10
2023-01-13T10:17:53.231Z,3.23
2023-01-13T10:20:29.509Z,2.73
2023-01-13T10:23:18.898Z,3.70
2023-01-13T10:28:31.582Z,3.10
2023-01-13T10:30:59.773Z,2.80
2023-01-13T10:33:30.731Z,3.57
2023-01-13T10:36:04.789Z,3.70
2023-01-13T10:38:34.779Z,3.47
2023-01-13T10:41:16.488Z,3.93
2023-01-13T10:43:59.008Z,4.10
2023-01-13T10:46:26.184Z,3.07
2023-01-13T10:48:58.449Z,4.23
2023-01-13T10:51:34.494Z,6.87
2023-01-13T10:54:14.508Z,7.43
2023-01-13T10:56:45.140Z,7.00
2023-01-13T10:59:27.016Z,7.20
2023-01-13T11:01:58.710Z,3.93
2023-01-13T11:04:40.858Z,4.53
2023-01-13T11:07:28.343Z,3.60
2023-01-13T11:10:24.599Z,3.57
2023-01-13T11:13:10.028Z,16.23
2023-01-13T11:15:47.504Z,7.30
2023-01-13T11:18:36.061Z,4.73
2023-01-13T11:21:08.291Z,6.88
2023-01-13T11:23:47.304Z,3.43
2023-01-13T11:26:27.957Z,6.25
2023-01-13T11:29:10.654Z,17.20
2023-01-13T11:31:46.295Z,16.40
2023-01-13T11:34:31.203Z,8.87
2023-01-13T11:37:01.047Z,4.53
2023-01-13T11:39:49.100Z,9.97
2023-01-13T11:42:28.098Z,5.00
2023-01-13T11:45:13.292Z,7.13
2023-01-13T11:47:40.147Z,5.87
2023-01-13T11:50:16.330Z,5.60
2023-01-13T11:52:45.968Z,4.40
2023-01-13T11:55:24.916Z,6.30
2023-01-13T11:58:05.719Z,6.55
2023-01-13T12:00:56.720Z,5.37
2023-01-13T12:03:41.853Z,4.63
2023-01-13T12:06:20.924Z,5.20
2023-01-13T12:09:22.647Z,5.65
2023-01-13T12:12:27.885Z,4.40
2023-01-13T12:15:03.110Z,5.53
2023-01-13T12:17:39.725Z,6.20
2023-01-13T12:20:18.815Z,5.30
2023-01-13T12:22:49.749Z,5.85
2023-01-13T12:25:50.796Z,6.30
2023-01-13T12:28:25.435Z,9.03
2023-01-13T12:30:59.361Z,7.60
2023-01-13T12:33:46.790Z,5.23
2023-01-13T12:36:50.398Z,4.80
2023-01-13T12:39:35.692Z,3.90
2023-01-13T12:42:36.189Z,4.87
2023-01-13T12:45:12.017Z,8.23
2023-01-13T12:47:43.965Z,5.60
2023-01-13T12:50:22.890Z,9.17
2023-01-13T12:52:51.844Z,5.20
2023-01-13T12:55:26.897Z,7.75
2023-01-13T12:58:15.722Z,4.33
2023-01-13T13:00:44.416Z,5.03
2023-01-13T13:03:11.327Z,5.00
2023-01-13T13:06:04.373Z,4.87
2023-01-13T13:08:44.584Z,4.27
2023-01-13T13:11:40.500Z,5.20
2023-01-13T13:14:12.756Z,3.17
2023-01-13T13:16:48.964Z,3.80
2023-01-13T13:19:18.962Z,5.30
2023-01-13T13:22:14.200Z,3.60
2023-01-13T13:24:44.070Z,4.70
2023-01-13T13:27:24.267Z,4.90
2023-01-13T13:30:02.233Z,4.80
2023-01-13T13:32:56.197Z,6.60
2023-01-13T13:35:28.824Z,5.97
2023-01-13T13:38:21.609Z,6.43
2023-01-13T13:41:07.253Z,5.37
2023-01-13T13:43:59.662Z,5.00
2023-01-13T13:46:47.599Z,5.30
2023-01-13T13:49:15.454Z,6.13
2023-01-13T13:51:50.555Z,6.50
2023-01-13T13:54:21.313Z,5.03
2023-01-13T13:56:50.357Z,4.63
2023-01-13T13:59:22.805Z,4.10
2023-01-13T14:02:02.351Z,4.70
2023-01-13T14:04:37.300Z,5.23
2023-01-13T14:07:18.613Z,4.47
2023-01-13T14:09:48.835Z,5.23
2023-01-13T14:12:19.038Z,5.20
2023-01-13T14:14:47.987Z,5.10
2023-01-13T14:17:28.058Z,3.88
2023-01-13T14:20:08.180Z,4.50
2023-01-13T14:22:35.329Z,3.27
2023-01-13T14:25:02.349Z,3.43
2023-01-13T14:27:30.632Z,4.10
2023-01-13T14:30:00.628Z,4.03
2023-01-13T14:32:35.151Z,4.83
2023-01-13T14:35:02.065Z,4.67
